sensor_id;sensor_type;location;lat;lon;timestamp;pressure;altitude;pressure_sealevel;temperature;humidity
74895;BME280;63447;49.446;8.666;2023-07-31T00:00:12;100368.41;;;18.44;61.82
74895;BME280;63447;49.446;8.666;2023-07-31T00:02:38;100362.78;;;18.41;62.25
74895;BME280;63447;49.446;8.666;2023-07-31T00:05:04;100365.63;;;18.44;62.34
74895;BME280;63447;49.446;8.666;2023-07-31T00:07:29;100344.66;;;18.24;62.29
74895;BME280;63447;49.446;8.666;2023-07-31T00:09:55;100362.75;;;18.37;61.90
74895;BME280;63447;49.446;8.666;2023-07-31T00:12:25;100355.63;;;18.43;61.80
74895;BME280;63447;49.446;8.666;2023-07-31T00:14:51;100351.50;;;18.30;61.87
74895;BME280;63447;49.446;8.666;2023-07-31T00:17:18;100337.03;;;18.17;62.25
74895;BME280;63447;49.446;8.666;2023-07-31T00:19:44;100360.34;;;18.36;62.02
74895;BME280;63447;49.446;8.666;2023-07-31T00:22:11;100363.47;;;18.30;61.92
74895;BME280;63447;49.446;8.666;2023-07-31T00:24:36;100357.38;;;18.18;62.21
74895;BME280;63447;49.446;8.666;2023-07-31T00:27:06;100358.56;;;18.17;62.27
74895;BME280;63447;49.446;8.666;2023-07-31T00:29:36;100342.09;;;18.08;62.80
74895;BME280;63447;49.446;8.666;2023-07-31T00:32:05;100355.31;;;18.11;62.69
74895;BME280;63447;49.446;8.666;2023-07-31T00:34:30;100329.63;;;17.98;62.63
74895;BME280;63447;49.446;8.666;2023-07-31T00:36:55;100353.41;;;18.19;62.78
74895;BME280;63447;49.446;8.666;2023-07-31T00:39:21;100343.88;;;18.27;62.04
74895;BME280;63447;49.446;8.666;2023-07-31T00:41:48;100347.31;;;18.10;62.46
74895;BME280;63447;49.446;8.666;2023-07-31T00:44:13;100355.31;;;18.11;62.99
74895;BME280;63447;49.446;8.666;2023-07-31T00:46:39;100350.94;;;18.14;63.00
74895;BME280;63447;49.446;8.666;2023-07-31T00:49:05;100354.50;;;18.11;62.82
74895;BME280;63447;49.446;8.666;2023-07-31T00:51:30;100340.50;;;18.07;62.87
74895;BME280;63447;49.446;8.666;2023-07-31T00:53:56;100352.47;;;18.08;62.68
74895;BME280;63447;49.446;8.666;2023-07-31T00:56:22;100337.63;;;18.00;63.04
74895;BME280;63447;49.446;8.666;2023-07-31T00:58:51;100320.78;;;17.89;63.33
74895;BME280;63447;49.446;8.666;2023-07-31T01:01:18;100339.25;;;18.01;63.48
74895;BME280;63447;49.446;8.666;2023-07-31T01:03:44;100336.34;;;17.94;63.86
74895;BME280;63447;49.446;8.666;2023-07-31T01:11:27;100320.78;;;17.89;63.74
74895;BME280;63447;49.446;8.666;2023-07-31T01:13:54;100330.38;;;17.92;63.66
74895;BME280;63447;49.446;8.666;2023-07-31T01:16:20;100304.72;;;17.79;63.01
74895;BME280;63447;49.446;8.666;2023-07-31T01:18:45;100321.22;;;17.91;63.40
74895;BME280;63447;49.446;8.666;2023-07-31T01:21:18;100326.38;;;17.89;63.84
74895;BME280;63447;49.446;8.666;2023-07-31T01:26:13;100314.75;;;17.84;63.83
74895;BME280;63447;49.446;8.666;2023-07-31T01:29:03;100303.03;;;17.71;63.59
74895;BME280;63447;49.446;8.666;2023-07-31T01:31:32;100297.47;;;17.75;64.51
74895;BME280;63447;49.446;8.666;2023-07-31T01:34:00;100307.97;;;17.85;63.72
74895;BME280;63447;49.446;8.666;2023-07-31T01:36:26;100301.25;;;17.89;63.16
74895;BME280;63447;49.446;8.666;2023-07-31T01:38:52;100304.03;;;17.89;63.50
74895;BME280;63447;49.446;8.666;2023-07-31T01:41:20;100288.69;;;17.73;63.45
74895;BME280;63447;49.446;8.666;2023-07-31T01:43:46;100305.97;;;17.85;63.48
74895;BME280;63447;49.446;8.666;2023-07-31T01:46:11;100307.25;;;17.95;63.41
74895;BME280;63447;49.446;8.666;2023-07-31T01:48:37;100294.59;;;18.05;62.81
74895;BME280;63447;49.446;8.666;2023-07-31T01:51:02;100288.09;;;17.90;62.80
74895;BME280;63447;49.446;8.666;2023-07-31T01:53:29;100291.59;;;17.83;63.19
74895;BME280;63447;49.446;8.666;2023-07-31T01:55:54;100283.66;;;17.85;63.01
74895;BME280;63447;49.446;8.666;2023-07-31T01:58:22;100291.25;;;17.88;62.95
74895;BME280;63447;49.446;8.666;2023-07-31T02:00:48;100302.84;;;17.90;63.18
74895;BME280;63447;49.446;8.666;2023-07-31T02:03:13;100291.13;;;17.78;63.35
74895;BME280;63447;49.446;8.666;2023-07-31T02:05:48;100285.97;;;17.80;63.65
74895;BME280;63447;49.446;8.666;2023-07-31T02:08:15;100290.34;;;17.77;63.75
74895;BME280;63447;49.446;8.666;2023-07-31T02:10:40;100296.00;;;17.84;64.10
74895;BME280;63447;49.446;8.666;2023-07-31T02:13:06;100282.78;;;17.78;64.28
74895;BME280;63447;49.446;8.666;2023-07-31T02:15:34;100270.88;;;17.84;63.32
74895;BME280;63447;49.446;8.666;2023-07-31T02:18:01;100288.91;;;17.94;63.46
74895;BME280;63447;49.446;8.666;2023-07-31T02:20:32;100261.72;;;17.84;63.20
74895;BME280;63447;49.446;8.666;2023-07-31T02:22:58;100274.81;;;17.80;64.03
74895;BME280;63447;49.446;8.666;2023-07-31T02:25:23;100268.81;;;17.78;64.06
74895;BME280;63447;49.446;8.666;2023-07-31T02:27:51;100239.53;;;17.61;63.57
74895;BME280;63447;49.446;8.666;2023-07-31T02:30:18;100256.03;;;17.77;64.12
74895;BME280;63447;49.446;8.666;2023-07-31T02:32:43;100264.53;;;17.87;63.72
74895;BME280;63447;49.446;8.666;2023-07-31T02:35:11;100264.88;;;17.82;63.65
74895;BME280;63447;49.446;8.666;2023-07-31T02:37:40;100267.75;;;17.89;63.33
74895;BME280;63447;49.446;8.666;2023-07-31T02:40:09;100228.28;;;17.54;63.66
74895;BME280;63447;49.446;8.666;2023-07-31T02:42:37;100262.38;;;17.74;63.80
74895;BME280;63447;49.446;8.666;2023-07-31T02:45:05;100266.78;;;17.75;63.54
74895;BME280;63447;49.446;8.666;2023-07-31T02:47:30;100262.84;;;17.79;64.04
74895;BME280;63447;49.446;8.666;2023-07-31T02:50:01;100238.25;;;17.55;63.77
74895;BME280;63447;49.446;8.666;2023-07-31T02:52:29;100257.06;;;17.61;64.26
74895;BME280;63447;49.446;8.666;2023-07-31T02:54:54;100257.16;;;17.69;64.04
74895;BME280;63447;49.446;8.666;2023-07-31T02:57:19;100240.69;;;17.60;63.85
74895;BME280;63447;49.446;8.666;2023-07-31T02:59:47;100233.44;;;17.52;64.23
74895;BME280;63447;49.446;8.666;2023-07-31T03:02:12;100255.47;;;17.60;64.30
74895;BME280;63447;49.446;8.666;2023-07-31T03:04:40;100263.88;;;17.64;64.44
74895;BME280;63447;49.446;8.666;2023-07-31T03:07:10;100261.03;;;17.60;64.51
74895;BME280;63447;49.446;8.666;2023-07-31T03:09:35;100256.75;;;17.67;64.50
74895;BME280;63447;49.446;8.666;2023-07-31T03:12:03;100244.25;;;17.57;64.46
74895;BME280;63447;49.446;8.666;2023-07-31T03:14:28;100248.69;;;17.61;64.36
74895;BME280;63447;49.446;8.666;2023-07-31T03:16:53;100225.72;;;17.38;64.45
74895;BME280;63447;49.446;8.666;2023-07-31T03:19:24;100235.81;;;17.50;64.49
74895;BME280;63447;49.446;8.666;2023-07-31T03:21:49;100253.59;;;17.72;64.27
74895;BME280;63447;49.446;8.666;2023-07-31T03:24:14;100252.03;;;17.74;64.05
74895;BME280;63447;49.446;8.666;2023-07-31T03:26:40;100233.38;;;17.48;64.58
74895;BME280;63447;49.446;8.666;2023-07-31T03:29:07;100262.44;;;17.77;63.93
74895;BME280;63447;49.446;8.666;2023-07-31T03:31:32;100252.66;;;17.60;64.09
74895;BME280;63447;49.446;8.666;2023-07-31T03:34:00;100238.34;;;17.62;63.82
74895;BME280;63447;49.446;8.666;2023-07-31T03:36:25;100259.69;;;17.81;64.03
74895;BME280;63447;49.446;8.666;2023-07-31T03:38:51;100259.25;;;17.79;63.48
74895;BME280;63447;49.446;8.666;2023-07-31T03:41:17;100258.75;;;17.70;64.13
74895;BME280;63447;49.446;8.666;2023-07-31T03:43:50;100263.53;;;17.69;64.62
74895;BME280;63447;49.446;8.666;2023-07-31T03:46:19;100256.69;;;17.63;64.63
74895;BME280;63447;49.446;8.666;2023-07-31T03:48:44;100263.53;;;17.66;64.88
74895;BME280;63447;49.446;8.666;2023-07-31T03:51:10;100243.91;;;17.62;64.87
74895;BME280;63447;49.446;8.666;2023-07-31T03:53:37;100234.66;;;17.54;64.01
74895;BME280;63447;49.446;8.666;2023-07-31T03:56:03;100248.75;;;17.65;64.85
74895;BME280;63447;49.446;8.666;2023-07-31T03:58:33;100240.25;;;17.54;65.22
74895;BME280;63447;49.446;8.666;2023-07-31T04:00:58;100255.31;;;17.50;65.57
74895;BME280;63447;49.446;8.666;2023-07-31T04:03:23;100246.63;;;17.55;65.18
74895;BME280;63447;49.446;8.666;2023-07-31T04:05:49;100232.53;;;17.44;65.43
74895;BME280;63447;49.446;8.666;2023-07-31T04:08:14;100244.63;;;17.55;65.19
74895;BME280;63447;49.446;8.666;2023-07-31T04:10:39;100248.06;;;17.42;66.00
74895;BME280;63447;49.446;8.666;2023-07-31T04:13:09;100250.84;;;17.42;66.24
74895;BME280;63447;49.446;8.666;2023-07-31T04:15:35;100247.66;;;17.40;66.19
74895;BME280;63447;49.446;8.666;2023-07-31T04:18:00;100208.72;;;17.13;66.19
74895;BME280;63447;49.446;8.666;2023-07-31T04:20:25;100256.41;;;17.42;66.20
74895;BME280;63447;49.446;8.666;2023-07-31T04:22:51;100253.19;;;17.36;66.34
74895;BME280;63447;49.446;8.666;2023-07-31T04:25:18;100252.38;;;17.36;65.96
74895;BME280;63447;49.446;8.666;2023-07-31T04:27:44;100249.88;;;17.27;65.98
74895;BME280;63447;49.446;8.666;2023-07-31T04:30:09;100252.00;;;17.37;65.94
74895;BME280;63447;49.446;8.666;2023-07-31T04:32:34;100253.72;;;17.49;65.51
74895;BME280;63447;49.446;8.666;2023-07-31T04:35:01;100252.63;;;17.57;65.54
74895;BME280;63447;49.446;8.666;2023-07-31T04:37:26;100254.84;;;17.44;66.09
74895;BME280;63447;49.446;8.666;2023-07-31T04:39:51;100245.81;;;17.54;65.26
74895;BME280;63447;49.446;8.666;2023-07-31T04:42:16;100250.50;;;17.47;65.97
74895;BME280;63447;49.446;8.666;2023-07-31T04:44:42;100258.97;;;17.54;65.26
74895;BME280;63447;49.446;8.666;2023-07-31T04:47:09;100249.97;;;17.34;66.10
74895;BME280;63447;49.446;8.666;2023-07-31T04:49:35;100243.97;;;17.32;66.55
74895;BME280;63447;49.446;8.666;2023-07-31T04:52:02;100197.88;;;17.08;66.85
74895;BME280;63447;49.446;8.666;2023-07-31T04:54:28;100233.63;;;17.33;66.24
74895;BME280;63447;49.446;8.666;2023-07-31T04:56:55;100248.56;;;17.51;66.04
74895;BME280;63447;49.446;8.666;2023-07-31T04:59:21;100247.72;;;17.47;66.12
74895;BME280;63447;49.446;8.666;2023-07-31T05:01:46;100237.69;;;17.42;65.92
74895;BME280;63447;49.446;8.666;2023-07-31T05:04:14;100240.09;;;17.40;66.05
74895;BME280;63447;49.446;8.666;2023-07-31T05:06:40;100229.75;;;17.44;65.77
74895;BME280;63447;49.446;8.666;2023-07-31T05:09:08;100241.28;;;17.39;66.82
74895;BME280;63447;49.446;8.666;2023-07-31T05:11:34;100243.19;;;17.32;66.88
74895;BME280;63447;49.446;8.666;2023-07-31T05:14:00;100242.84;;;17.37;67.21
74895;BME280;63447;49.446;8.666;2023-07-31T05:16:25;100240.38;;;17.32;66.51
74895;BME280;63447;49.446;8.666;2023-07-31T05:18:53;100239.25;;;17.36;67.15
74895;BME280;63447;49.446;8.666;2023-07-31T05:21:20;100232.91;;;17.39;66.41
74895;BME280;63447;49.446;8.666;2023-07-31T05:23:45;100237.22;;;17.33;67.01
74895;BME280;63447;49.446;8.666;2023-07-31T05:26:13;100238.16;;;17.48;66.61
74895;BME280;63447;49.446;8.666;2023-07-31T05:28:39;100239.72;;;17.45;66.67
74895;BME280;63447;49.446;8.666;2023-07-31T05:31:04;100247.03;;;17.57;66.31
74895;BME280;63447;49.446;8.666;2023-07-31T05:33:31;100245.31;;;17.45;67.21
74895;BME280;63447;49.446;8.666;2023-07-31T05:35:56;100245.78;;;17.51;65.94
74895;BME280;63447;49.446;8.666;2023-07-31T05:38:22;100226.94;;;17.41;66.37
74895;BME280;63447;49.446;8.666;2023-07-31T05:40:47;100238.88;;;17.38;66.94
74895;BME280;63447;49.446;8.666;2023-07-31T05:43:13;100222.00;;;17.27;66.37
74895;BME280;63447;49.446;8.666;2023-07-31T05:45:39;100225.25;;;17.33;66.80
74895;BME280;63447;49.446;8.666;2023-07-31T05:48:05;100244.50;;;17.45;67.33
74895;BME280;63447;49.446;8.666;2023-07-31T05:50:31;100236.59;;;17.50;66.99
74895;BME280;63447;49.446;8.666;2023-07-31T05:52:56;100232.66;;;17.55;66.25
74895;BME280;63447;49.446;8.666;2023-07-31T05:55:24;100239.81;;;17.52;66.27
74895;BME280;63447;49.446;8.666;2023-07-31T05:57:52;100224.22;;;17.48;66.23
74895;BME280;63447;49.446;8.666;2023-07-31T06:00:18;100247.59;;;17.66;66.63
74895;BME280;63447;49.446;8.666;2023-07-31T06:02:43;100244.59;;;17.52;66.59
74895;BME280;63447;49.446;8.666;2023-07-31T06:05:11;100222.22;;;17.48;66.58
74895;BME280;63447;49.446;8.666;2023-07-31T06:07:41;100237.16;;;17.63;66.10
74895;BME280;63447;49.446;8.666;2023-07-31T06:10:07;100243.19;;;17.65;65.88
74895;BME280;63447;49.446;8.666;2023-07-31T06:12:33;100236.72;;;17.61;66.56
74895;BME280;63447;49.446;8.666;2023-07-31T06:15:01;100235.94;;;17.60;66.38
74895;BME280;63447;49.446;8.666;2023-07-31T06:17:29;100234.69;;;17.58;66.78
74895;BME280;63447;49.446;8.666;2023-07-31T06:19:56;100232.81;;;17.66;66.81
74895;BME280;63447;49.446;8.666;2023-07-31T06:22:21;100219.78;;;17.43;67.36
74895;BME280;63447;49.446;8.666;2023-07-31T06:24:49;100219.59;;;17.62;67.09
74895;BME280;63447;49.446;8.666;2023-07-31T06:27:15;100233.06;;;17.53;66.63
74895;BME280;63447;49.446;8.666;2023-07-31T06:29:40;100210.69;;;17.50;67.33
74895;BME280;63447;49.446;8.666;2023-07-31T06:32:08;100218.31;;;17.53;66.54
74895;BME280;63447;49.446;8.666;2023-07-31T06:34:36;100223.91;;;17.56;67.31
74895;BME280;63447;49.446;8.666;2023-07-31T06:37:01;100217.06;;;17.50;66.78
74895;BME280;63447;49.446;8.666;2023-07-31T06:39:29;100187.13;;;17.44;66.55
74895;BME280;63447;49.446;8.666;2023-07-31T06:41:54;100219.59;;;17.62;66.99
74895;BME280;63447;49.446;8.666;2023-07-31T06:44:21;100204.13;;;17.69;66.12
74895;BME280;63447;49.446;8.666;2023-07-31T06:46:48;100214.59;;;17.79;66.80
74895;BME280;63447;49.446;8.666;2023-07-31T06:49:13;100156.50;;;17.51;66.22
74895;BME280;63447;49.446;8.666;2023-07-31T06:51:40;100197.84;;;17.79;66.50
74895;BME280;63447;49.446;8.666;2023-07-31T06:54:06;100209.94;;;17.93;66.54
74895;BME280;63447;49.446;8.666;2023-07-31T06:56:31;100221.28;;;18.11;65.86
74895;BME280;63447;49.446;8.666;2023-07-31T06:58:59;100218.13;;;18.16;64.93
74895;BME280;63447;49.446;8.666;2023-07-31T07:01:24;100211.19;;;18.00;65.00
74895;BME280;63447;49.446;8.666;2023-07-31T07:03:49;100216.34;;;17.97;65.20
74895;BME280;63447;49.446;8.666;2023-07-31T07:06:16;100223.13;;;17.96;65.81
74895;BME280;63447;49.446;8.666;2023-07-31T07:08:44;100230.72;;;18.00;65.77
74895;BME280;63447;49.446;8.666;2023-07-31T07:11:10;100221.31;;;18.15;65.70
74895;BME280;63447;49.446;8.666;2023-07-31T07:13:37;100214.97;;;18.25;65.28
74895;BME280;63447;49.446;8.666;2023-07-31T07:16:03;100204.38;;;18.48;64.40
74895;BME280;63447;49.446;8.666;2023-07-31T07:18:28;100199.00;;;18.22;64.41
74895;BME280;63447;49.446;8.666;2023-07-31T07:20:54;100213.13;;;18.43;64.54
74895;BME280;63447;49.446;8.666;2023-07-31T07:23:20;100215.56;;;18.52;63.50
74895;BME280;63447;49.446;8.666;2023-07-31T07:25:46;100211.94;;;18.48;64.40
74895;BME280;63447;49.446;8.666;2023-07-31T07:28:12;100215.53;;;18.48;64.41
74895;BME280;63447;49.446;8.666;2023-07-31T07:30:40;100204.28;;;18.34;64.67
74895;BME280;63447;49.446;8.666;2023-07-31T07:33:06;100199.16;;;18.47;65.14
74895;BME280;63447;49.446;8.666;2023-07-31T07:35:35;100204.13;;;18.64;64.33
74895;BME280;63447;49.446;8.666;2023-07-31T07:38:03;100208.97;;;18.78;63.40
74895;BME280;63447;49.446;8.666;2023-07-31T07:40:28;100212.53;;;18.75;63.20
74895;BME280;63447;49.446;8.666;2023-07-31T07:42:54;100206.50;;;18.66;63.85
74895;BME280;63447;49.446;8.666;2023-07-31T07:45:19;100210.97;;;18.81;63.18
74895;BME280;63447;49.446;8.666;2023-07-31T07:47:44;100213.44;;;18.89;63.07
74895;BME280;63447;49.446;8.666;2023-07-31T07:50:10;100211.63;;;18.56;63.76
74895;BME280;63447;49.446;8.666;2023-07-31T07:52:35;100203.28;;;18.60;64.10
74895;BME280;63447;49.446;8.666;2023-07-31T07:55:00;100216.56;;;18.81;63.41
74895;BME280;63447;49.446;8.666;2023-07-31T07:57:26;100209.00;;;18.85;63.88
74895;BME280;63447;49.446;8.666;2023-07-31T07:59:54;100211.44;;;18.97;63.52
74895;BME280;63447;49.446;8.666;2023-07-31T08:02:19;100207.47;;;18.94;64.01
74895;BME280;63447;49.446;8.666;2023-07-31T08:04:45;100204.25;;;18.92;63.65
74895;BME280;63447;49.446;8.666;2023-07-31T08:07:11;100204.31;;;19.10;63.27
74895;BME280;63447;49.446;8.666;2023-07-31T08:09:37;100203.59;;;19.35;62.61
74895;BME280;63447;49.446;8.666;2023-07-31T08:12:03;100195.56;;;19.19;62.77
74895;BME280;63447;49.446;8.666;2023-07-31T08:14:29;100195.28;;;19.56;61.10
74895;BME280;63447;49.446;8.666;2023-07-31T08:16:55;100196.47;;;19.51;61.46
74895;BME280;63447;49.446;8.666;2023-07-31T08:19:20;100192.06;;;19.50;61.19
74895;BME280;63447;49.446;8.666;2023-07-31T08:21:45;100189.69;;;19.63;60.90
74895;BME280;63447;49.446;8.666;2023-07-31T08:24:11;100173.31;;;19.61;60.48
74895;BME280;63447;49.446;8.666;2023-07-31T08:26:36;100177.72;;;19.70;60.01
74895;BME280;63447;49.446;8.666;2023-07-31T08:29:05;100176.53;;;19.85;60.20
74895;BME280;63447;49.446;8.666;2023-07-31T08:31:30;100167.72;;;20.04;59.58
74895;BME280;63447;49.446;8.666;2023-07-31T08:33:56;100163.31;;;19.89;58.74
74895;BME280;63447;49.446;8.666;2023-07-31T08:36:21;100162.91;;;20.08;59.65
74895;BME280;63447;49.446;8.666;2023-07-31T08:38:49;100160.50;;;20.14;59.36
74895;BME280;63447;49.446;8.666;2023-07-31T08:41:15;100161.31;;;20.18;59.55
74895;BME280;63447;49.446;8.666;2023-07-31T08:43:44;100160.50;;;19.78;59.00
74895;BME280;63447;49.446;8.666;2023-07-31T08:46:13;100146.91;;;20.05;58.90
74895;BME280;63447;49.446;8.666;2023-07-31T08:48:41;100160.09;;;20.12;58.37
74895;BME280;63447;49.446;8.666;2023-07-31T08:51:07;100141.31;;;19.94;58.97
74895;BME280;63447;49.446;8.666;2023-07-31T08:53:32;100138.13;;;19.89;59.34
74895;BME280;63447;49.446;8.666;2023-07-31T08:56:00;100142.13;;;19.77;59.89
74895;BME280;63447;49.446;8.666;2023-07-31T08:58:33;100143.72;;;19.92;59.19
74895;BME280;63447;49.446;8.666;2023-07-31T09:01:04;100138.50;;;20.05;59.08
74895;BME280;63447;49.446;8.666;2023-07-31T09:03:33;100146.53;;;19.89;59.33
74895;BME280;63447;49.446;8.666;2023-07-31T09:06:02;100147.72;;;19.81;59.09
74895;BME280;63447;49.446;8.666;2023-07-31T09:08:30;100139.69;;;20.08;58.38
74895;BME280;63447;49.446;8.666;2023-07-31T09:11:02;100145.31;;;19.97;58.21
74895;BME280;63447;49.446;8.666;2023-07-31T09:13:33;100132.94;;;19.94;58.78
74895;BME280;63447;49.446;8.666;2023-07-31T09:15:59;100134.09;;;20.15;58.28
74895;BME280;63447;49.446;8.666;2023-07-31T09:18:24;100130.50;;;20.07;58.29
74895;BME280;63447;49.446;8.666;2023-07-31T09:21:05;100124.50;;;20.05;57.96
74895;BME280;63447;49.446;8.666;2023-07-31T09:23:44;100130.09;;;20.02;57.83
74895;BME280;63447;49.446;8.666;2023-07-31T09:26:10;100141.28;;;20.37;57.58
74895;BME280;63447;49.446;8.666;2023-07-31T09:28:38;100126.03;;;20.52;57.66
74895;BME280;63447;49.446;8.666;2023-07-31T09:31:11;100122.78;;;20.68;56.52
74895;BME280;63447;49.446;8.666;2023-07-31T09:33:54;100133.69;;;20.16;57.76
74895;BME280;63447;49.446;8.666;2023-07-31T09:36:20;100130.44;;;20.28;56.89
74895;BME280;63447;49.446;8.666;2023-07-31T09:38:46;100128.47;;;20.47;56.92
74895;BME280;63447;49.446;8.666;2023-07-31T09:41:11;100108.34;;;20.70;57.04
74895;BME280;63447;49.446;8.666;2023-07-31T09:43:37;100104.25;;;20.85;56.53
74895;BME280;63447;49.446;8.666;2023-07-31T09:46:02;100090.72;;;20.73;56.59
74895;BME280;63447;49.446;8.666;2023-07-31T09:48:28;100097.16;;;20.66;57.35
74895;BME280;63447;49.446;8.666;2023-07-31T09:50:53;100086.97;;;21.00;57.12
74895;BME280;63447;49.446;8.666;2023-07-31T09:53:28;100081.66;;;21.20;56.23
74895;BME280;63447;49.446;8.666;2023-07-31T09:55:58;100075.25;;;21.13;55.41
74895;BME280;63447;49.446;8.666;2023-07-31T09:58:24;100072.50;;;21.61;54.93
74895;BME280;63447;49.446;8.666;2023-07-31T10:00:57;100065.25;;;21.67;54.20
74895;BME280;63447;49.446;8.666;2023-07-31T10:03:24;100082.81;;;21.78;53.98
74895;BME280;63447;49.446;8.666;2023-07-31T10:05:53;100068.19;;;21.94;53.00
74895;BME280;63447;49.446;8.666;2023-07-31T10:08:22;100071.22;;;22.14;53.77
74895;BME280;63447;49.446;8.666;2023-07-31T10:10:51;100070.69;;;21.85;53.92
74895;BME280;63447;49.446;8.666;2023-07-31T10:13:16;100063.16;;;21.75;53.23
74895;BME280;63447;49.446;8.666;2023-07-31T10:15:42;100070.16;;;22.00;53.48
74895;BME280;63447;49.446;8.666;2023-07-31T10:18:08;100063.97;;;21.75;53.89
74895;BME280;63447;49.446;8.666;2023-07-31T10:20:35;100059.34;;;21.95;53.70
74895;BME280;63447;49.446;8.666;2023-07-31T10:23:03;100047.16;;;22.13;53.44
74895;BME280;63447;49.446;8.666;2023-07-31T10:25:31;100057.00;;;21.90;53.58
74895;BME280;63447;49.446;8.666;2023-07-31T10:28:01;100040.59;;;21.85;53.94
74895;BME280;63447;49.446;8.666;2023-07-31T10:30:30;100043.31;;;21.92;52.91
74895;BME280;63447;49.446;8.666;2023-07-31T10:32:57;100043.31;;;21.92;53.16
74895;BME280;63447;49.446;8.666;2023-07-31T10:35:22;100041.78;;;22.25;52.65
74895;BME280;63447;49.446;8.666;2023-07-31T10:37:48;100040.09;;;21.94;53.48
74895;BME280;63447;49.446;8.666;2023-07-31T10:40:19;100033.91;;;21.72;53.48
74895;BME280;63447;49.446;8.666;2023-07-31T10:42:54;100057.75;;;21.94;52.50
74895;BME280;63447;49.446;8.666;2023-07-31T10:48:06;100045.41;;;21.85;52.84
74895;BME280;63447;49.446;8.666;2023-07-31T10:50:57;100047.31;;;21.95;52.07
74895;BME280;63447;49.446;8.666;2023-07-31T10:53:26;100017.84;;;22.14;52.43
74895;BME280;63447;49.446;8.666;2023-07-31T10:55:52;100029.31;;;21.89;52.85
74895;BME280;63447;49.446;8.666;2023-07-31T10:58:19;100046.75;;;21.70;53.26
74895;BME280;63447;49.446;8.666;2023-07-31T11:00:45;100045.41;;;21.85;53.02
74895;BME280;63447;49.446;8.666;2023-07-31T11:03:12;100050.44;;;21.63;53.70
74895;BME280;63447;49.446;8.666;2023-07-31T11:08:13;100041.34;;;21.89;52.91
74895;BME280;63447;49.446;8.666;2023-07-31T11:10:38;100048.97;;;21.89;53.35
74895;BME280;63447;49.446;8.666;2023-07-31T11:13:04;100032.03;;;22.03;52.90
74895;BME280;63447;49.446;8.666;2023-07-31T11:15:30;100029.63;;;22.02;52.29
74895;BME280;63447;49.446;8.666;2023-07-31T11:17:56;100036.03;;;21.98;53.11
74895;BME280;63447;49.446;8.666;2023-07-31T11:20:26;100021.53;;;22.07;52.46
74895;BME280;63447;49.446;8.666;2023-07-31T11:22:54;100017.00;;;22.17;52.01
74895;BME280;63447;49.446;8.666;2023-07-31T11:25:19;100023.88;;;22.12;51.68
74895;BME280;63447;49.446;8.666;2023-07-31T11:27:45;100014.19;;;22.17;52.25
74895;BME280;63447;49.446;8.666;2023-07-31T11:30:20;100012.06;;;22.58;52.13
74895;BME280;63447;49.446;8.666;2023-07-31T11:32:46;100011.66;;;22.87;50.77
74895;BME280;63447;49.446;8.666;2023-07-31T11:35:13;100017.50;;;22.08;51.42
74895;BME280;63447;49.446;8.666;2023-07-31T11:37:44;100011.56;;;21.99;52.24
74895;BME280;63447;49.446;8.666;2023-07-31T11:40:10;100024.78;;;22.06;52.91
74895;BME280;63447;49.446;8.666;2023-07-31T11:42:36;100009.69;;;21.85;52.34
74895;BME280;63447;49.446;8.666;2023-07-31T11:45:05;99989.41;;;21.67;52.85
74895;BME280;63447;49.446;8.666;2023-07-31T11:47:35;100016.81;;;21.93;52.91
74895;BME280;63447;49.446;8.666;2023-07-31T11:50:03;100010.09;;;21.84;52.79
74895;BME280;63447;49.446;8.666;2023-07-31T11:52:30;99999.09;;;22.04;52.97
74895;BME280;63447;49.446;8.666;2023-07-31T11:54:57;99986.97;;;22.10;52.99
74895;BME280;63447;49.446;8.666;2023-07-31T11:57:23;99998.97;;;22.14;51.62
74895;BME280;63447;49.446;8.666;2023-07-31T11:59:54;99986.53;;;22.12;52.09
74895;BME280;63447;49.446;8.666;2023-07-31T12:02:20;99983.19;;;22.24;52.63
74895;BME280;63447;49.446;8.666;2023-07-31T12:04:46;99993.75;;;22.13;52.64
74895;BME280;63447;49.446;8.666;2023-07-31T12:07:12;99975.13;;;22.26;52.61
74895;BME280;63447;49.446;8.666;2023-07-31T12:09:38;99991.50;;;22.00;53.54
74895;BME280;63447;49.446;8.666;2023-07-31T12:12:08;99985.13;;;21.93;53.68
74895;BME280;63447;49.446;8.666;2023-07-31T12:14:33;99974.66;;;21.97;54.04
74895;BME280;63447;49.446;8.666;2023-07-31T12:17:03;99969.03;;;22.00;53.53
74895;BME280;63447;49.446;8.666;2023-07-31T12:19:29;99963.75;;;22.06;52.62
74895;BME280;63447;49.446;8.666;2023-07-31T12:21:59;99964.44;;;22.14;53.64
74895;BME280;63447;49.446;8.666;2023-07-31T12:24:27;99955.38;;;22.03;54.34
74895;BME280;63447;49.446;8.666;2023-07-31T12:26:52;99956.03;;;22.10;53.01
74895;BME280;63447;49.446;8.666;2023-07-31T12:29:20;99950.44;;;22.10;53.03
74895;BME280;63447;49.446;8.666;2023-07-31T12:31:46;99949.53;;;22.47;52.87
74895;BME280;63447;49.446;8.666;2023-07-31T12:34:18;99933.75;;;22.57;52.31
74895;BME280;63447;49.446;8.666;2023-07-31T12:36:44;99943.06;;;22.81;51.97
74895;BME280;63447;49.446;8.666;2023-07-31T12:39:14;99934.28;;;23.02;51.38
74895;BME280;63447;49.446;8.666;2023-07-31T12:41:39;99945.56;;;22.72;53.21
74895;BME280;63447;49.446;8.666;2023-07-31T12:44:07;99933.16;;;22.69;52.93
74895;BME280;63447;49.446;8.666;2023-07-31T12:46:33;99931.00;;;22.80;51.94
74895;BME280;63447;49.446;8.666;2023-07-31T12:49:03;99934.44;;;22.91;50.55
74895;BME280;63447;49.446;8.666;2023-07-31T12:51:28;99944.09;;;22.90;50.81
74895;BME280;63447;49.446;8.666;2023-07-31T12:53:54;99941.09;;;22.78;50.21
74895;BME280;63447;49.446;8.666;2023-07-31T12:56:19;99928.00;;;22.64;50.78
74895;BME280;63447;49.446;8.666;2023-07-31T12:58:44;99923.78;;;22.52;51.49
74895;BME280;63447;49.446;8.666;2023-07-31T13:01:12;99920.59;;;22.77;50.54